Whiting Field Naval Air Station South Airport Milton US
ICAO: KNDZ
IATA: NDZ
Category: Medium
Scheduled Services: No

Elevation: 177 ft
TransAlt. 18000 ft.

Airport Communications:
PENSACOLA APP/DEP:124.85
ATIS:27.357
CLNC DEL:35.56
GND:34.68
BASE OPS:23.37
PMSV METRO:31.695
TWR:121.4

KNDZ Zoom In..

Runways:

(A) RW 05 length 5997 ft width 200 ft
---- / hdg 49

(B) RW 14 length 6001 ft width 200 ft
---- / hdg 139

(C) RW 23 length 5997 ft width 200 ft
---- / hdg 229

(D) RW 32 length 6001 ft width 200 ft
ILS 110.55 / hdg 319

Location; KNDZ
Day. 21 / Time. 23.56 Zulu
* Altimeter: 30.14
* Temperature: 17° c. 62.6°f.
* Wind from: 000° Speed 00 kn.
Dewpoint: 05° c.
Visibility: 10 Statute Miles.
Clouds: Broken 25000 ft.

KNDZ 212356Z 00000KT 10SM BKN250 17/05 A3014 RMK AO2 SLP193 T01670050 10233 20161 58002 $


Wind - Calm.

jpsM music video
CHECK IT OUT

jpsM - It Moves..

 
jpsmedia.com for Web Design  worldairports.se 2018   terms of use